createdAt,value
2022-10-13T00:01:18.901Z,14.16
2022-10-13T00:03:49.057Z,14.04
2022-10-13T00:06:18.713Z,13.84
2022-10-13T00:08:45.734Z,14.05
2022-10-13T00:11:14.048Z,14.14
2022-10-13T00:13:41.440Z,14.19
2022-10-13T00:16:08.563Z,13.99
2022-10-13T00:18:35.197Z,14.02
2022-10-13T00:21:07.183Z,13.67
2022-10-13T00:23:34.643Z,13.99
2022-10-13T00:26:07.491Z,14.10
2022-10-13T00:28:34.145Z,13.94
2022-10-13T00:31:00.662Z,13.94
2022-10-13T00:33:27.207Z,13.99
2022-10-13T00:35:54.055Z,14.07
2022-10-13T00:38:22.261Z,14.02
2022-10-13T00:40:56.087Z,14.30
2022-10-13T00:43:31.177Z,13.86
2022-10-13T00:45:57.747Z,13.74
2022-10-13T00:48:26.808Z,13.59
2022-10-13T00:50:53.646Z,13.71
2022-10-13T00:53:22.973Z,14.27
2022-10-13T00:55:51.770Z,13.69
2022-10-13T00:58:19.662Z,13.78
2022-10-13T01:00:49.111Z,13.43
2022-10-13T01:03:16.129Z,13.28
2022-10-13T01:05:42.905Z,13.90
2022-10-13T01:08:10.333Z,14.20
2022-10-13T01:11:10.542Z,13.90
2022-10-13T01:14:03.174Z,14.41
2022-10-13T01:16:35.384Z,14.39
2022-10-13T01:19:29.900Z,14.40
2022-10-13T01:22:27.613Z,14.78
2022-10-13T01:25:14.383Z,14.81
2022-10-13T01:27:50.317Z,14.59
2022-10-13T01:30:19.419Z,14.67
2022-10-13T01:32:59.888Z,14.66
2022-10-13T01:35:54.230Z,14.41
2022-10-13T01:38:32.899Z,14.04
2022-10-13T01:41:10.965Z,14.24
2022-10-13T01:43:42.836Z,14.09
2022-10-13T01:46:14.131Z,14.34
2022-10-13T01:48:42.585Z,14.18
2022-10-13T01:51:13.971Z,13.77
2022-10-13T01:53:41.192Z,14.33
2022-10-13T01:56:07.741Z,14.24
2022-10-13T01:58:35.629Z,13.42
2022-10-13T02:01:20.474Z,14.03
2022-10-13T02:03:55.956Z,14.01
2022-10-13T02:06:29.614Z,14.55
2022-10-13T02:09:10.890Z,14.24
2022-10-13T02:11:39.429Z,14.61
2022-10-13T02:14:14.315Z,14.60
2022-10-13T02:16:43.092Z,14.53
2022-10-13T02:19:17.187Z,14.68
2022-10-13T02:21:44.290Z,14.91
2022-10-13T02:24:11.041Z,14.84
2022-10-13T02:26:38.285Z,15.13
2022-10-13T02:29:12.418Z,15.17
2022-10-13T02:31:39.774Z,15.31
2022-10-13T02:34:06.426Z,14.56
2022-10-13T02:36:33.504Z,14.58
2022-10-13T02:39:00.351Z,15.17
2022-10-13T02:41:26.805Z,15.13
2022-10-13T02:43:53.573Z,14.80
2022-10-13T02:46:20.045Z,15.31
2022-10-13T02:48:46.541Z,15.00
2022-10-13T02:51:12.998Z,14.91
2022-10-13T02:53:40.171Z,15.23
2022-10-13T02:56:07.638Z,15.23
2022-10-13T02:58:34.941Z,15.45
2022-10-13T03:01:13.511Z,15.49
2022-10-13T03:03:40.621Z,15.62
2022-10-13T03:06:07.829Z,15.49
2022-10-13T03:08:35.388Z,15.67
2022-10-13T03:11:02.227Z,15.57
2022-10-13T03:13:28.714Z,15.64
2022-10-13T03:15:55.266Z,15.39
2022-10-13T03:18:21.750Z,15.25
2022-10-13T03:21:07.024Z,15.58
2022-10-13T03:23:34.023Z,15.59
2022-10-13T03:26:00.718Z,15.80
2022-10-13T03:28:27.422Z,15.49
2022-10-13T03:31:01.930Z,15.48
2022-10-13T03:33:28.402Z,14.95
2022-10-13T03:35:54.902Z,15.45
2022-10-13T03:38:21.363Z,15.07
2022-10-13T03:40:47.765Z,15.22
2022-10-13T03:43:14.227Z,15.60
2022-10-13T03:45:40.681Z,15.69
2022-10-13T03:48:07.503Z,15.79
2022-10-13T03:50:33.977Z,15.67
2022-10-13T03:53:00.452Z,15.37
2022-10-13T03:55:27.074Z,15.73
2022-10-13T03:57:53.591Z,15.34
2022-10-13T04:00:20.228Z,15.24
2022-10-13T04:02:49.210Z,14.67
2022-10-13T04:05:15.737Z,14.89
2022-10-13T04:07:42.512Z,15.25
2022-10-13T04:10:11.562Z,15.52
2022-10-13T04:12:38.244Z,15.70
2022-10-13T04:15:05.398Z,15.47
2022-10-13T04:17:31.830Z,15.34
2022-10-13T04:19:58.312Z,14.28
2022-10-13T04:22:24.841Z,14.81
2022-10-13T04:24:51.477Z,14.67
2022-10-13T04:27:19.869Z,13.99
2022-10-13T04:29:46.374Z,14.60
2022-10-13T04:32:12.887Z,14.79
2022-10-13T04:34:39.351Z,14.78
2022-10-13T04:37:05.827Z,14.83
2022-10-13T04:39:32.321Z,14.63
2022-10-13T04:41:59.126Z,14.99
2022-10-13T04:44:25.721Z,15.26
2022-10-13T04:46:52.269Z,14.83
2022-10-13T04:49:18.725Z,14.72
2022-10-13T04:51:45.244Z,13.59
2022-10-13T04:54:11.769Z,14.73
2022-10-13T04:56:38.641Z,14.79
2022-10-13T04:59:05.861Z,14.40
2022-10-13T05:01:33.126Z,14.54
2022-10-13T05:04:01.746Z,14.53
2022-10-13T05:06:58.914Z,14.77
2022-10-13T05:09:25.871Z,14.71
2022-10-13T05:11:54.358Z,14.75
2022-10-13T05:14:22.006Z,14.79
2022-10-13T05:16:49.045Z,14.58
2022-10-13T05:19:15.573Z,14.56
2022-10-13T05:21:42.377Z,14.61
2022-10-13T05:24:13.811Z,14.90
2022-10-13T05:26:40.691Z,15.08
2022-10-13T05:29:07.135Z,15.32
2022-10-13T05:31:36.155Z,14.31
2022-10-13T05:34:03.093Z,14.73
2022-10-13T05:36:32.623Z,14.77
2022-10-13T05:39:01.556Z,14.66
2022-10-13T05:41:28.787Z,13.89
2022-10-13T05:43:59.406Z,14.53
2022-10-13T05:46:25.991Z,14.39
2022-10-13T05:48:52.763Z,14.47
2022-10-13T05:51:33.752Z,14.24
2022-10-13T05:54:24.389Z,14.66
2022-10-13T05:57:04.401Z,14.74
2022-10-13T05:59:35.477Z,14.81
2022-10-13T06:02:02.379Z,14.00
2022-10-13T06:04:34.601Z,14.48
2022-10-13T06:07:01.098Z,14.95
2022-10-13T06:09:34.568Z,14.26
2022-10-13T06:12:01.506Z,14.28
2022-10-13T06:14:28.046Z,15.13
2022-10-13T06:16:54.499Z,15.20
2022-10-13T06:19:21.015Z,14.82
2022-10-13T06:21:47.536Z,15.31
2022-10-13T06:24:14.131Z,15.49
2022-10-13T06:26:40.858Z,15.12
2022-10-13T06:29:07.691Z,14.98
2022-10-13T06:31:34.262Z,14.05
2022-10-13T06:34:00.790Z,15.25
2022-10-13T06:36:27.681Z,15.02
2022-10-13T06:38:54.206Z,14.98
2022-10-13T06:41:20.928Z,15.65
2022-10-13T06:43:47.565Z,15.74
2022-10-13T06:46:14.155Z,15.71
2022-10-13T06:48:40.787Z,15.63
2022-10-13T06:51:09.438Z,16.04
2022-10-13T06:53:36.013Z,15.74
2022-10-13T06:56:05.054Z,16.25
2022-10-13T06:58:31.744Z,15.26
2022-10-13T07:00:58.316Z,15.16
2022-10-13T07:03:25.323Z,15.13
2022-10-13T07:05:51.979Z,15.02
2022-10-13T07:08:19.044Z,14.25
2022-10-13T07:10:45.642Z,15.04
2022-10-13T07:13:12.223Z,15.69
2022-10-13T07:15:39.978Z,15.40
2022-10-13T07:18:06.992Z,15.05
2022-10-13T07:20:33.769Z,15.14
2022-10-13T07:23:00.352Z,15.30
2022-10-13T07:25:26.851Z,15.41
2022-10-13T07:27:53.384Z,16.07
2022-10-13T07:30:20.012Z,15.79
2022-10-13T07:32:47.629Z,16.13
2022-10-13T07:35:14.155Z,15.88
2022-10-13T07:37:40.739Z,16.92
2022-10-13T07:40:08.122Z,17.07
2022-10-13T07:42:34.699Z,17.14
2022-10-13T07:45:02.219Z,16.29
2022-10-13T07:47:29.269Z,17.21
2022-10-13T07:49:55.881Z,16.87
2022-10-13T07:52:23.287Z,17.33
2022-10-13T07:54:50.749Z,17.59
2022-10-13T07:57:17.653Z,17.59
2022-10-13T07:59:44.198Z,16.69
2022-10-13T08:02:10.678Z,17.81
2022-10-13T08:04:37.262Z,17.78
2022-10-13T08:07:05.636Z,17.71
2022-10-13T08:09:32.350Z,17.76
2022-10-13T08:12:00.887Z,19.08
2022-10-13T08:14:29.051Z,19.62
2022-10-13T08:16:56.184Z,19.15
2022-10-13T08:19:22.956Z,19.15
2022-10-13T08:21:59.259Z,19.83
2022-10-13T08:24:27.161Z,18.09
2022-10-13T08:26:53.857Z,18.71
2022-10-13T08:29:23.808Z,18.20
2022-10-13T08:31:55.338Z,18.54
2022-10-13T08:34:23.342Z,19.39
2022-10-13T08:36:53.388Z,18.75
2022-10-13T08:39:21.218Z,19.14
2022-10-13T08:41:47.909Z,19.48
2022-10-13T08:47:28.409Z,19.38
2022-10-13T08:50:01.458Z,17.82
2022-10-13T08:52:44.287Z,19.37
2022-10-13T08:55:18.148Z,19.56
2022-10-13T08:57:44.624Z,20.02
2022-10-13T09:00:13.306Z,18.59
2022-10-13T09:02:40.183Z,19.94
2022-10-13T09:05:14.215Z,19.11
2022-10-13T09:07:41.134Z,18.99
2022-10-13T09:10:09.775Z,19.45
2022-10-13T09:12:36.342Z,19.70
2022-10-13T09:15:09.900Z,20.68
2022-10-13T09:17:38.047Z,21.18
2022-10-13T09:20:06.202Z,21.10
2022-10-13T09:22:37.981Z,20.76
2022-10-13T09:25:12.454Z,21.12
2022-10-13T09:27:59.838Z,20.64
2022-10-13T09:30:31.457Z,19.60
2022-10-13T09:33:13.068Z,19.68
2022-10-13T09:35:40.536Z,18.74
2022-10-13T09:38:19.866Z,18.94
2022-10-13T09:41:16.850Z,18.54
2022-10-13T09:43:46.276Z,18.91
2022-10-13T09:46:32.107Z,19.39
2022-10-13T09:49:05.027Z,19.48
2022-10-13T09:51:37.653Z,19.54
2022-10-13T09:54:05.065Z,19.88
2022-10-13T09:56:49.512Z,20.15
2022-10-13T09:59:23.086Z,21.29
2022-10-13T10:01:50.643Z,22.31
2022-10-13T10:04:32.136Z,22.48
2022-10-13T10:06:58.615Z,22.81
2022-10-13T10:09:41.796Z,24.79
2022-10-13T10:12:13.434Z,24.76
2022-10-13T10:14:39.964Z,26.63
2022-10-13T10:17:09.484Z,25.73
2022-10-13T10:19:52.218Z,26.40
2022-10-13T10:22:40.469Z,26.73
2022-10-13T10:25:25.925Z,25.35
2022-10-13T10:28:29.708Z,25.55
2022-10-13T10:31:06.875Z,23.34
2022-10-13T10:33:49.413Z,24.14
2022-10-13T10:36:22.429Z,25.38
2022-10-13T10:38:56.263Z,23.37
2022-10-13T10:41:35.986Z,26.10
2022-10-13T10:44:04.746Z,25.63
2022-10-13T10:46:35.689Z,24.96
2022-10-13T10:49:14.365Z,27.16
2022-10-13T10:51:40.988Z,25.30
2022-10-13T10:54:20.422Z,25.80
2022-10-13T10:57:33.454Z,26.26
2022-10-13T11:00:18.058Z,26.56
2022-10-13T11:02:52.123Z,26.92
2022-10-13T11:05:18.831Z,27.66
2022-10-13T11:07:55.930Z,27.82
2022-10-13T11:10:22.869Z,26.56
2022-10-13T11:12:52.616Z,27.90
2022-10-13T11:15:26.233Z,26.27
2022-10-13T11:17:53.918Z,26.87
2022-10-13T11:20:20.543Z,29.28
2022-10-13T11:22:58.851Z,29.98
2022-10-13T11:25:40.604Z,30.39
2022-10-13T11:28:22.537Z,30.38
2022-10-13T11:30:52.615Z,30.27
2022-10-13T11:33:36.196Z,33.59
2022-10-13T11:36:39.494Z,34.33
2022-10-13T11:42:10.187Z,30.91
2022-10-13T11:44:58.213Z,34.82
2022-10-13T11:47:30.813Z,36.70
2022-10-13T11:50:03.542Z,36.06
2022-10-13T11:52:45.680Z,35.56
2022-10-13T11:55:15.562Z,38.44
2022-10-13T11:57:42.186Z,36.64
2022-10-13T12:00:15.475Z,35.69
2022-10-13T12:02:50.810Z,35.39
2022-10-13T12:05:22.535Z,32.33
2022-10-13T12:07:52.067Z,32.85
2022-10-13T12:10:23.976Z,29.87
2022-10-13T12:12:50.986Z,27.82
2022-10-13T12:15:31.346Z,25.94
2022-10-13T12:17:58.003Z,25.92
2022-10-13T12:20:30.308Z,23.74
2022-10-13T12:22:57.550Z,24.51
2022-10-13T12:25:26.750Z,24.13
2022-10-13T12:27:59.032Z,22.68
2022-10-13T12:30:30.138Z,22.56
2022-10-13T12:32:59.099Z,23.87
2022-10-13T12:35:28.434Z,22.49
2022-10-13T12:37:55.841Z,21.88
2022-10-13T12:40:22.839Z,22.63
2022-10-13T12:42:49.750Z,20.57
2022-10-13T12:45:18.533Z,21.54
2022-10-13T12:47:45.059Z,21.28
2022-10-13T12:50:30.013Z,22.00
2022-10-13T12:53:09.121Z,21.37
2022-10-13T12:55:58.905Z,21.29
2022-10-13T12:58:27.538Z,21.66
2022-10-13T13:01:08.193Z,21.37
2022-10-13T13:03:37.098Z,21.65
2022-10-13T13:06:22.643Z,21.51
2022-10-13T13:09:07.207Z,21.44
2022-10-13T13:11:36.222Z,20.82
2022-10-13T13:14:41.943Z,20.66
2022-10-13T13:17:12.885Z,20.62
2022-10-13T13:19:41.287Z,19.96
2022-10-13T13:22:08.282Z,20.81
2022-10-13T13:24:40.210Z,20.45
2022-10-13T13:27:33.163Z,20.14
2022-10-13T13:29:59.715Z,19.95
2022-10-13T13:32:27.954Z,20.37
2022-10-13T13:34:54.598Z,20.50
2022-10-13T13:37:31.068Z,20.44
2022-10-13T13:39:58.587Z,20.36
2022-10-13T13:42:26.741Z,20.19
2022-10-13T13:44:53.230Z,20.24
2022-10-13T13:47:22.371Z,20.80
2022-10-13T13:49:50.831Z,20.75
2022-10-13T13:52:18.360Z,19.26
2022-10-13T13:54:45.525Z,19.09
2022-10-13T13:57:13.407Z,18.79
2022-10-13T13:59:41.142Z,18.07
2022-10-13T14:02:14.931Z,17.82
2022-10-13T14:04:41.569Z,17.66
2022-10-13T14:07:08.275Z,17.21
2022-10-13T14:09:34.808Z,17.03
2022-10-13T14:12:01.365Z,17.33
2022-10-13T14:14:30.673Z,17.27
2022-10-13T14:16:58.283Z,17.24
2022-10-13T14:19:24.841Z,17.21
2022-10-13T14:21:51.981Z,17.06
2022-10-13T14:24:19.472Z,16.71
2022-10-13T14:26:46.223Z,17.46
2022-10-13T14:29:13.452Z,17.63
2022-10-13T14:31:40.334Z,17.25
2022-10-13T14:34:07.103Z,17.48
2022-10-13T14:36:33.636Z,17.90
2022-10-13T14:39:00.215Z,17.54
2022-10-13T14:41:26.869Z,17.88
2022-10-13T14:43:54.554Z,17.62
2022-10-13T14:46:21.487Z,17.58
2022-10-13T14:48:48.397Z,17.81
2022-10-13T14:51:15.071Z,17.73
2022-10-13T14:53:44.571Z,17.93
2022-10-13T14:56:23.094Z,18.28
2022-10-13T14:58:51.766Z,17.95
2022-10-13T15:01:18.909Z,17.70
2022-10-13T15:03:45.989Z,17.95
2022-10-13T15:06:21.561Z,18.11
2022-10-13T15:08:48.573Z,17.94
2022-10-13T15:11:16.350Z,17.40
2022-10-13T15:13:42.836Z,17.48
2022-10-13T15:16:16.105Z,17.64
2022-10-13T15:18:42.784Z,17.29
2022-10-13T15:21:09.693Z,17.22
2022-10-13T15:23:36.129Z,17.21
2022-10-13T15:26:03.590Z,17.44
2022-10-13T15:28:35.405Z,17.97
2022-10-13T15:31:01.963Z,17.44
2022-10-13T15:33:29.620Z,17.45
2022-10-13T15:35:56.860Z,17.81
2022-10-13T15:38:23.637Z,17.62
2022-10-13T15:40:50.780Z,17.48
2022-10-13T15:43:17.972Z,17.85
2022-10-13T15:45:54.987Z,17.84
2022-10-13T15:48:21.682Z,18.10
2022-10-13T15:50:48.158Z,18.13
2022-10-13T15:53:14.868Z,18.20
2022-10-13T15:55:41.366Z,17.77
2022-10-13T15:58:11.332Z,17.55
2022-10-13T16:00:40.678Z,17.60
2022-10-13T16:03:07.700Z,17.96
2022-10-13T16:05:34.294Z,17.12
2022-10-13T16:08:00.781Z,16.71
2022-10-13T16:10:27.273Z,18.04
2022-10-13T16:12:53.712Z,18.14
2022-10-13T16:15:20.288Z,17.99
2022-10-13T16:17:46.925Z,17.61
2022-10-13T16:20:14.113Z,17.67
2022-10-13T16:22:40.613Z,17.80
2022-10-13T16:25:07.597Z,17.29
2022-10-13T16:27:34.295Z,17.53
2022-10-13T16:30:00.765Z,18.02
2022-10-13T16:32:27.282Z,17.47
2022-10-13T16:34:53.806Z,17.46
2022-10-13T16:37:20.744Z,17.86
2022-10-13T16:39:51.510Z,17.73
2022-10-13T16:42:18.767Z,17.63
2022-10-13T16:44:45.229Z,17.94
2022-10-13T16:47:15.937Z,17.65
2022-10-13T16:49:44.651Z,17.23
2022-10-13T16:52:11.127Z,17.03
2022-10-13T16:54:37.569Z,17.73
2022-10-13T16:57:04.258Z,17.39
2022-10-13T16:59:30.746Z,17.05
2022-10-13T17:01:57.864Z,16.86
2022-10-13T17:04:24.652Z,17.66
2022-10-13T17:06:51.254Z,17.45
2022-10-13T17:09:17.757Z,17.72
2022-10-13T17:11:44.294Z,17.70
2022-10-13T17:14:10.971Z,17.45
2022-10-13T17:16:37.475Z,17.47
2022-10-13T17:19:04.063Z,17.36
2022-10-13T17:21:31.158Z,17.28
2022-10-13T17:23:58.309Z,16.46
2022-10-13T17:26:26.001Z,15.92
2022-10-13T17:28:53.459Z,17.17
2022-10-13T17:31:21.775Z,17.45
2022-10-13T17:33:49.670Z,17.40
2022-10-13T17:36:26.991Z,17.38
2022-10-13T17:38:55.837Z,17.09
2022-10-13T17:41:23.082Z,17.41
2022-10-13T17:43:51.396Z,17.07
2022-10-13T17:49:06.770Z,17.52
2022-10-13T17:51:33.292Z,16.75
2022-10-13T17:54:00.196Z,17.38
2022-10-13T17:56:27.561Z,17.52
2022-10-13T17:58:54.412Z,17.50
2022-10-13T18:01:27.341Z,16.87
2022-10-13T18:03:57.123Z,17.15
2022-10-13T18:06:24.145Z,17.05
2022-10-13T18:08:50.928Z,16.63
2022-10-13T18:11:19.798Z,16.96
2022-10-13T18:13:46.438Z,17.15
2022-10-13T18:16:21.576Z,17.32
2022-10-13T18:18:50.028Z,17.45
2022-10-13T18:21:22.223Z,17.02
2022-10-13T18:23:48.972Z,17.23
2022-10-13T18:26:19.518Z,17.66
2022-10-13T18:28:47.910Z,17.37
2022-10-13T18:31:17.531Z,17.60
2022-10-13T18:33:44.572Z,16.78
2022-10-13T18:36:16.089Z,17.99
2022-10-13T18:38:43.018Z,17.24
2022-10-13T18:41:09.519Z,17.72
2022-10-13T18:43:37.082Z,17.70
2022-10-13T18:46:04.197Z,17.61
2022-10-13T18:48:31.798Z,18.12
2022-10-13T18:51:06.630Z,17.80
2022-10-13T18:53:35.213Z,17.90
2022-10-13T18:56:05.031Z,18.00
2022-10-13T18:58:32.194Z,17.54
2022-10-13T19:01:03.340Z,17.72
2022-10-13T19:03:31.572Z,17.03
2022-10-13T19:05:58.056Z,17.47
2022-10-13T19:08:25.421Z,17.84
2022-10-13T19:10:52.375Z,16.87
2022-10-13T19:13:18.956Z,17.02
2022-10-13T19:15:45.542Z,17.01
2022-10-13T19:18:12.254Z,17.26
2022-10-13T19:20:38.857Z,16.47
2022-10-13T19:23:05.414Z,16.34
2022-10-13T19:25:32.032Z,16.38
2022-10-13T19:27:58.889Z,16.62
2022-10-13T19:30:26.480Z,16.76
2022-10-13T19:32:52.961Z,16.87
2022-10-13T19:35:19.463Z,16.62
2022-10-13T19:37:45.913Z,16.38
2022-10-13T19:40:12.368Z,16.78
2022-10-13T19:42:38.904Z,16.74
2022-10-13T19:45:06.111Z,16.94
2022-10-13T19:47:33.091Z,17.05
2022-10-13T19:49:59.553Z,17.28
2022-10-13T19:52:26.191Z,16.73
2022-10-13T19:54:53.069Z,16.33
2022-10-13T19:57:19.850Z,16.48
2022-10-13T19:59:47.831Z,16.62
2022-10-13T20:02:14.427Z,17.24
2022-10-13T20:04:41.057Z,16.93
2022-10-13T20:07:07.559Z,17.00
2022-10-13T20:09:34.321Z,17.20
2022-10-13T20:12:00.904Z,16.66
2022-10-13T20:14:27.440Z,17.24
2022-10-13T20:16:56.458Z,17.26
2022-10-13T20:19:22.915Z,16.75
2022-10-13T20:21:52.434Z,16.34
2022-10-13T20:24:23.051Z,16.17
2022-10-13T20:26:50.336Z,16.72
2022-10-13T20:29:16.966Z,16.51
2022-10-13T20:31:47.785Z,15.97
2022-10-13T20:34:14.342Z,15.61
2022-10-13T20:36:41.139Z,15.99
2022-10-13T20:39:08.825Z,15.95
2022-10-13T20:41:35.398Z,16.31
2022-10-13T20:44:02.113Z,16.19
2022-10-13T20:46:28.723Z,16.61
2022-10-13T20:49:13.084Z,16.89
2022-10-13T20:51:41.410Z,16.98
2022-10-13T20:54:08.630Z,16.63
2022-10-13T20:56:35.625Z,16.37
2022-10-13T20:59:04.285Z,16.90
2022-10-13T21:01:31.054Z,16.68
2022-10-13T21:03:58.609Z,16.80
2022-10-13T21:06:26.396Z,17.24
2022-10-13T21:08:53.263Z,16.99
2022-10-13T21:11:21.054Z,17.05
2022-10-13T21:13:48.318Z,17.25
2022-10-13T21:16:27.214Z,16.86
2022-10-13T21:18:54.862Z,17.25
2022-10-13T21:21:23.256Z,17.07
2022-10-13T21:23:54.027Z,16.90
2022-10-13T21:26:22.275Z,17.42
2022-10-13T21:28:50.046Z,17.54
2022-10-13T21:31:18.113Z,17.04
2022-10-13T21:33:44.866Z,17.47
2022-10-13T21:36:13.953Z,17.60
2022-10-13T21:38:41.986Z,17.55
2022-10-13T21:41:10.130Z,17.03
2022-10-13T21:43:36.829Z,17.03
2022-10-13T21:46:09.448Z,16.27
2022-10-13T21:48:36.486Z,16.61
2022-10-13T21:51:23.452Z,16.80
2022-10-13T21:53:55.644Z,16.20
2022-10-13T21:56:23.141Z,16.28
2022-10-13T21:58:49.956Z,16.54
2022-10-13T22:01:20.183Z,16.58
2022-10-13T22:03:47.557Z,16.34
2022-10-13T22:06:18.991Z,16.24
2022-10-13T22:08:48.978Z,15.97
2022-10-13T22:11:16.469Z,16.39
2022-10-13T22:13:43.136Z,16.31
2022-10-13T22:16:14.432Z,16.48
2022-10-13T22:18:41.565Z,15.78
2022-10-13T22:21:13.567Z,15.62
2022-10-13T22:23:40.141Z,15.99
2022-10-13T22:26:07.903Z,16.47
2022-10-13T22:28:37.268Z,15.93
2022-10-13T22:31:09.515Z,16.61
2022-10-13T22:33:37.506Z,16.51
2022-10-13T22:36:13.378Z,16.35
2022-10-13T22:38:40.280Z,16.00
2022-10-13T22:41:08.239Z,16.97
2022-10-13T22:43:35.288Z,16.30
2022-10-13T22:46:02.038Z,16.41
2022-10-13T22:48:28.784Z,16.42
2022-10-13T22:50:56.205Z,16.81
2022-10-13T22:53:22.803Z,17.25
2022-10-13T22:55:49.241Z,16.19
2022-10-13T22:58:15.705Z,16.59
2022-10-13T23:00:42.277Z,16.41
2022-10-13T23:03:13.397Z,16.32
2022-10-13T23:05:47.637Z,15.72
2022-10-13T23:08:14.711Z,16.05
2022-10-13T23:10:41.253Z,16.49
2022-10-13T23:13:07.748Z,16.52
2022-10-13T23:15:34.270Z,16.40
2022-10-13T23:18:00.776Z,16.23
2022-10-13T23:20:27.309Z,15.92
2022-10-13T23:22:56.535Z,16.56
2022-10-13T23:25:22.992Z,16.74
2022-10-13T23:27:49.504Z,16.95
2022-10-13T23:30:16.148Z,17.03
2022-10-13T23:32:42.608Z,16.79
2022-10-13T23:35:09.308Z,17.21
2022-10-13T23:37:35.767Z,16.84
2022-10-13T23:40:02.214Z,17.22
2022-10-13T23:42:28.701Z,16.92
2022-10-13T23:44:55.200Z,16.17
2022-10-13T23:47:21.928Z,16.61
2022-10-13T23:49:48.522Z,17.40
2022-10-13T23:52:15.447Z,16.54
2022-10-13T23:54:41.898Z,16.74
2022-10-13T23:57:08.362Z,16.72
2022-10-13T23:59:35.092Z,17.26
